createdAt,value
2023-05-10T00:03:30.647Z,46.74
2023-05-10T00:13:56.316Z,47.00
2023-05-10T00:24:21.850Z,47.19
2023-05-10T00:34:47.159Z,47.31
2023-05-10T00:45:13.887Z,47.79
2023-05-10T00:55:40.132Z,47.89
2023-05-10T01:06:05.897Z,48.13
2023-05-10T01:16:34.685Z,48.27
2023-05-10T01:27:44.133Z,48.51
2023-05-10T01:38:17.599Z,48.68
2023-05-10T01:48:49.517Z,48.58
2023-05-10T01:59:19.147Z,48.78
2023-05-10T02:09:49.171Z,48.88
2023-05-10T02:20:16.853Z,49.27
2023-05-10T02:30:42.066Z,49.20
2023-05-10T02:41:10.213Z,49.37
2023-05-10T02:51:42.761Z,49.65
2023-05-10T03:02:09.446Z,49.33
2023-05-10T03:12:49.438Z,49.67
2023-05-10T03:23:23.296Z,49.96
2023-05-10T03:33:53.587Z,49.95
2023-05-10T03:44:19.136Z,50.39
2023-05-10T03:54:44.710Z,50.55
2023-05-10T04:05:11.678Z,50.99
2023-05-10T04:15:37.170Z,51.51
2023-05-10T04:26:06.535Z,51.72
2023-05-10T04:36:33.778Z,52.16
2023-05-10T04:46:59.445Z,52.22
2023-05-10T04:57:25.827Z,52.97
2023-05-10T05:07:51.498Z,52.19
2023-05-10T05:18:17.348Z,50.85
2023-05-10T05:28:43.437Z,49.55
2023-05-10T05:39:08.905Z,48.92
2023-05-10T05:49:35.341Z,47.31
2023-05-10T06:00:01.471Z,45.99
2023-05-10T06:10:27.952Z,44.46
2023-05-10T06:20:54.639Z,43.31
2023-05-10T06:31:20.512Z,42.52
2023-05-10T06:41:46.049Z,40.94
2023-05-10T06:52:11.487Z,40.54
2023-05-10T07:02:37.149Z,39.73
2023-05-10T07:13:02.990Z,38.71
2023-05-10T07:23:29.384Z,38.86
2023-05-10T07:33:56.011Z,38.35
2023-05-10T07:44:21.523Z,37.91
2023-05-10T07:54:47.200Z,37.27
2023-05-10T08:05:13.395Z,36.70
2023-05-10T08:15:39.136Z,36.53
2023-05-10T08:26:04.931Z,36.42
2023-05-10T08:36:31.026Z,35.86
2023-05-10T08:46:57.909Z,35.36
2023-05-10T08:57:24.017Z,34.84
2023-05-10T09:07:50.235Z,35.52
2023-05-10T09:18:16.647Z,34.92
2023-05-10T09:28:56.568Z,34.47
2023-05-10T09:39:22.863Z,35.23
2023-05-10T09:49:51.414Z,34.61
2023-05-10T10:00:21.726Z,34.53
2023-05-10T10:10:47.624Z,34.68
2023-05-10T10:21:15.691Z,34.16
2023-05-10T10:31:48.611Z,33.85
2023-05-10T10:42:14.460Z,34.76
2023-05-10T10:52:41.128Z,34.90
2023-05-10T11:03:07.694Z,34.68
2023-05-10T11:13:35.474Z,35.06
2023-05-10T11:24:17.848Z,34.99
2023-05-10T11:34:43.568Z,34.72
2023-05-10T11:45:12.708Z,34.76
2023-05-10T11:55:38.768Z,35.01
2023-05-10T12:06:04.754Z,34.74
2023-05-10T12:16:32.619Z,33.95
2023-05-10T12:27:06.959Z,34.22
2023-05-10T12:37:36.868Z,33.68
2023-05-10T12:48:02.809Z,35.59
2023-05-10T12:58:35.676Z,34.03
2023-05-10T13:09:04.713Z,33.72
2023-05-10T13:19:30.650Z,33.37
2023-05-10T13:29:56.995Z,33.33
2023-05-10T13:40:23.596Z,33.17
2023-05-10T13:50:49.242Z,32.95
2023-05-10T14:01:15.043Z,33.13
2023-05-10T14:11:44.779Z,33.15
2023-05-10T14:22:11.148Z,33.05
2023-05-10T14:32:37.778Z,33.40
2023-05-10T14:43:04.196Z,33.96
2023-05-10T14:53:30.103Z,33.62
2023-05-10T15:03:56.429Z,33.58
2023-05-10T15:14:23.165Z,34.15
2023-05-10T15:24:49.162Z,34.05
2023-05-10T15:35:15.313Z,33.70
2023-05-10T15:45:41.745Z,33.66
2023-05-10T15:56:09.480Z,33.76
2023-05-10T16:06:38.644Z,33.46
2023-05-10T16:17:06.766Z,34.43
2023-05-10T16:27:33.665Z,34.99
2023-05-10T16:38:00.046Z,34.25
2023-05-10T16:48:28.418Z,34.79
2023-05-10T16:58:56.691Z,34.92
2023-05-10T17:09:22.486Z,34.88
2023-05-10T17:19:49.298Z,35.06
2023-05-10T17:30:16.284Z,35.60
2023-05-10T17:40:49.530Z,35.72
2023-05-10T17:51:15.484Z,35.91
2023-05-10T18:01:42.711Z,36.37
2023-05-10T18:12:09.293Z,36.76
2023-05-10T18:22:37.082Z,37.05
2023-05-10T18:33:03.223Z,37.05
2023-05-10T18:43:29.018Z,37.23
2023-05-10T18:53:55.222Z,37.33
2023-05-10T19:04:20.799Z,37.69
2023-05-10T19:14:47.559Z,37.92
2023-05-10T19:25:17.138Z,38.04
2023-05-10T19:35:43.909Z,38.40
2023-05-10T19:46:10.243Z,38.36
2023-05-10T19:56:35.948Z,38.64
2023-05-10T20:07:01.935Z,38.69
2023-05-10T20:17:27.884Z,38.76
2023-05-10T20:27:53.762Z,39.00
2023-05-10T20:38:19.598Z,39.11
2023-05-10T20:48:45.407Z,39.62
2023-05-10T20:59:11.248Z,40.83
2023-05-10T21:09:36.990Z,41.29
2023-05-10T21:20:04.120Z,41.28
2023-05-10T21:30:30.127Z,41.79
2023-05-10T21:40:56.359Z,42.35
2023-05-10T21:51:22.527Z,42.83
2023-05-10T22:01:48.392Z,42.90
2023-05-10T22:12:14.884Z,43.24
2023-05-10T22:22:41.078Z,43.39
2023-05-10T22:33:07.015Z,43.84
2023-05-10T22:43:33.467Z,44.09
2023-05-10T22:53:59.607Z,44.34
